createdAt,value
2018-01-12T00:04:55.045Z,16.48
2018-01-12T00:10:11.650Z,15.05
2018-01-12T00:12:42.771Z,14.25
2018-01-12T00:15:10.353Z,15.20
2018-01-12T00:17:42.901Z,17.85
2018-01-12T00:23:03.596Z,16.25
2018-01-12T00:25:45.688Z,14.68
2018-01-12T00:28:17.131Z,14.52
2018-01-12T00:30:45.595Z,14.85
2018-01-12T00:33:19.630Z,13.75
2018-01-12T00:35:53.098Z,14.45
2018-01-12T00:38:28.606Z,16.15
2018-01-12T00:41:00.196Z,13.40
2018-01-12T00:43:38.180Z,15.43
2018-01-12T00:46:06.423Z,14.15
2018-01-12T00:51:21.460Z,14.87
2018-01-12T00:53:51.769Z,13.95
2018-01-12T01:05:45.022Z,13.07
2018-01-12T01:08:15.440Z,13.20
2018-01-12T01:10:56.062Z,11.38
2018-01-12T01:19:06.253Z,12.85
2018-01-12T01:21:34.222Z,11.85
2018-01-12T01:24:04.016Z,11.30
2018-01-12T01:26:48.931Z,11.10
2018-01-12T01:29:30.820Z,11.15
2018-01-12T01:35:14.441Z,11.55
2018-01-12T01:37:43.709Z,10.30
2018-01-12T01:40:10.897Z,11.90
2018-01-12T01:42:39.660Z,10.48
2018-01-12T01:45:06.302Z,11.38
2018-01-12T01:47:33.748Z,9.65
2018-01-12T01:50:05.372Z,9.68
2018-01-12T01:52:37.073Z,9.00
2018-01-12T01:55:05.874Z,8.80
2018-01-12T01:57:32.722Z,8.73
2018-01-12T02:00:00.205Z,9.25
2018-01-12T02:02:28.184Z,9.45
2018-01-12T02:04:59.202Z,8.75
2018-01-12T02:07:27.823Z,9.43
2018-01-12T02:09:55.357Z,9.73
2018-01-12T02:12:34.163Z,9.80
2018-01-12T02:15:11.301Z,9.85
2018-01-12T02:17:38.198Z,9.30
2018-01-12T02:20:06.040Z,9.73
2018-01-12T02:22:36.488Z,10.85
2018-01-12T02:25:10.506Z,10.93
2018-01-12T02:27:40.250Z,9.85
2018-01-12T02:30:08.663Z,10.30
2018-01-12T02:32:44.203Z,10.68
2018-01-12T02:35:13.112Z,9.95
2018-01-12T02:37:44.523Z,9.38
2018-01-12T02:40:11.682Z,9.18
2018-01-12T02:48:26.314Z,8.75
2018-01-12T02:50:53.903Z,9.15
2018-01-12T02:53:20.947Z,9.55
2018-01-12T02:55:52.322Z,9.85
2018-01-12T02:58:29.651Z,9.65
2018-01-12T03:01:18.792Z,9.38
2018-01-12T03:03:56.316Z,11.50
2018-01-12T03:06:24.836Z,9.77
2018-01-12T03:08:53.295Z,9.07
2018-01-12T03:11:19.980Z,9.30
2018-01-12T03:13:47.172Z,10.20
2018-01-12T03:16:17.482Z,10.15
2018-01-12T03:19:08.360Z,8.80
2018-01-12T03:24:30.279Z,9.23
2018-01-12T03:27:04.940Z,8.95
2018-01-12T03:32:53.171Z,9.98
2018-01-12T03:35:24.338Z,9.20
2018-01-12T03:40:35.517Z,10.63
2018-01-12T03:43:12.239Z,9.77
2018-01-12T03:46:01.235Z,11.23
2018-01-12T03:48:29.100Z,8.32
2018-01-12T03:51:01.172Z,9.57
2018-01-12T03:53:29.342Z,10.63
2018-01-12T03:55:57.101Z,10.27
2018-01-12T03:58:46.499Z,11.05
2018-01-12T04:01:14.954Z,9.80
2018-01-12T04:03:49.778Z,10.02
2018-01-12T04:06:16.918Z,10.98
2018-01-12T04:08:44.902Z,10.70
2018-01-12T04:11:12.670Z,11.15
2018-01-12T04:13:52.377Z,13.20
2018-01-12T04:16:20.263Z,11.98
2018-01-12T04:19:10.870Z,12.57
2018-01-12T04:21:39.758Z,11.73
2018-01-12T04:24:15.227Z,12.00
2018-01-12T04:26:47.799Z,12.45
2018-01-12T04:32:11.836Z,11.05
2018-01-12T04:35:03.772Z,11.30
2018-01-12T04:37:31.038Z,11.45
2018-01-12T04:39:59.198Z,11.80
2018-01-12T04:42:39.155Z,13.00
2018-01-12T04:45:14.873Z,11.32
2018-01-12T04:47:41.804Z,11.40
2018-01-12T04:50:09.399Z,13.45
2018-01-12T04:52:37.796Z,11.95
2018-01-12T04:55:05.869Z,11.90
2018-01-12T04:57:49.318Z,11.52
2018-01-12T05:00:22.431Z,13.13
2018-01-12T05:03:16.789Z,12.00
2018-01-12T05:05:56.316Z,14.30
2018-01-12T05:08:37.384Z,12.85
2018-01-12T05:13:52.386Z,13.10
2018-01-12T05:16:33.317Z,13.00
2018-01-12T05:19:43.507Z,12.18
2018-01-12T05:22:17.539Z,13.20
2018-01-12T05:25:02.168Z,15.00
2018-01-12T05:27:30.447Z,13.95
2018-01-12T05:29:59.690Z,13.20
2018-01-12T05:35:25.925Z,14.45
2018-01-12T05:40:46.399Z,12.77
2018-01-12T05:43:27.072Z,14.35
2018-01-12T05:50:45.969Z,12.82
2018-01-12T05:59:03.658Z,13.55
2018-01-12T06:01:44.477Z,13.62
2018-01-12T06:04:24.660Z,12.88
2018-01-12T06:06:51.812Z,13.50
2018-01-12T06:09:20.017Z,13.75
2018-01-12T06:11:46.818Z,11.88
2018-01-12T06:14:13.252Z,13.68
2018-01-12T06:16:49.510Z,12.75
2018-01-12T06:19:27.799Z,13.13
2018-01-12T06:21:54.436Z,14.85
2018-01-12T06:24:20.972Z,12.25
2018-01-12T06:26:51.192Z,13.95
2018-01-12T06:29:20.430Z,15.35
2018-01-12T06:31:51.238Z,14.05
2018-01-12T06:34:29.238Z,13.40
2018-01-12T06:36:57.679Z,14.48
2018-01-12T06:39:24.892Z,13.62
2018-01-12T06:41:52.733Z,14.13
2018-01-12T06:44:25.952Z,15.30
2018-01-12T06:46:59.835Z,13.40
2018-01-12T06:49:31.755Z,12.95
2018-01-12T06:52:12.302Z,14.70
2018-01-12T06:54:38.939Z,13.10
2018-01-12T06:57:05.442Z,14.82
2018-01-12T06:59:32.817Z,14.32
2018-01-12T07:02:02.291Z,13.10
2018-01-12T07:04:30.198Z,14.05
2018-01-12T07:06:58.152Z,14.68
2018-01-12T07:09:25.660Z,13.70
2018-01-12T07:11:52.266Z,13.30
2018-01-12T07:14:19.219Z,15.00
2018-01-12T07:16:45.884Z,16.80
2018-01-12T07:19:13.490Z,16.05
2018-01-12T07:21:52.327Z,14.40
2018-01-12T07:24:18.645Z,15.02
2018-01-12T07:26:44.944Z,14.95
2018-01-12T07:29:11.275Z,13.93
2018-01-12T07:31:38.982Z,15.02
2018-01-12T07:34:05.436Z,14.98
2018-01-12T07:36:33.749Z,14.57
2018-01-12T07:39:00.146Z,14.43
2018-01-12T07:41:27.312Z,15.00
2018-01-12T07:43:53.610Z,14.25
2018-01-12T07:46:19.895Z,14.85
2018-01-12T07:48:46.248Z,16.12
2018-01-12T07:51:12.719Z,14.60
2018-01-12T07:53:40.247Z,14.48
2018-01-12T07:56:06.937Z,13.88
2018-01-12T07:58:33.232Z,15.32
2018-01-12T08:01:05.780Z,15.15
2018-01-12T08:03:34.135Z,12.95
2018-01-12T08:06:02.263Z,14.90
2018-01-12T08:08:33.173Z,13.45
2018-01-12T08:10:59.836Z,13.88
2018-01-12T08:13:28.672Z,14.85
2018-01-12T08:15:56.983Z,14.00
2018-01-12T08:18:28.468Z,13.00
2018-01-12T08:20:56.568Z,13.80
2018-01-12T08:23:23.107Z,14.25
2018-01-12T08:25:49.890Z,13.75
2018-01-12T08:28:16.792Z,15.50
2018-01-12T08:30:43.780Z,13.25
2018-01-12T08:33:10.571Z,13.80
2018-01-12T08:35:36.931Z,13.20
2018-01-12T08:38:03.329Z,12.43
2018-01-12T08:40:30.614Z,13.60
2018-01-12T08:42:57.230Z,13.90
2018-01-12T08:45:24.592Z,13.07
2018-01-12T08:47:50.919Z,13.43
2018-01-12T08:50:17.247Z,13.40
2018-01-12T08:52:44.877Z,16.00
2018-01-12T08:55:11.267Z,13.93
2018-01-12T08:57:37.769Z,14.65
2018-01-12T09:00:04.323Z,14.20
2018-01-12T09:02:31.290Z,15.07
2018-01-12T09:04:57.779Z,16.08
2018-01-12T09:07:24.862Z,12.48
2018-01-12T09:09:53.196Z,15.07
2018-01-12T09:12:19.523Z,14.00
2018-01-12T09:14:50.218Z,14.87
2018-01-12T09:17:28.859Z,15.77
2018-01-12T09:22:54.566Z,14.65
2018-01-12T09:25:24.497Z,14.48
2018-01-12T09:27:52.548Z,15.50
2018-01-12T09:30:19.013Z,14.95
2018-01-12T09:32:49.866Z,16.48
2018-01-12T09:35:17.858Z,17.35
2018-01-12T09:37:44.218Z,15.90
2018-01-12T09:43:04.434Z,13.80
2018-01-12T09:45:31.249Z,15.30
2018-01-12T09:48:16.351Z,14.82
2018-01-12T09:50:43.590Z,15.45
2018-01-12T09:53:10.293Z,14.18
2018-01-12T09:55:38.751Z,16.50
2018-01-12T09:58:05.144Z,15.18
2018-01-12T10:00:41.513Z,17.25
2018-01-12T10:03:07.877Z,15.60
2018-01-12T10:05:34.199Z,14.98
2018-01-12T10:08:15.422Z,15.07
2018-01-12T10:10:41.851Z,15.23
2018-01-12T10:13:08.256Z,15.07
2018-01-12T10:15:34.667Z,15.38
2018-01-12T10:18:01.047Z,17.20
2018-01-12T10:20:35.182Z,16.55
2018-01-12T10:23:01.472Z,14.87
2018-01-12T10:25:27.783Z,15.40
2018-01-12T10:28:01.175Z,17.40
2018-01-12T10:30:32.313Z,16.33
2018-01-12T10:33:07.295Z,16.00
2018-01-12T10:35:34.302Z,16.30
2018-01-12T10:38:01.449Z,18.17
2018-01-12T10:40:29.716Z,16.98
2018-01-12T10:42:57.540Z,16.60
2018-01-12T10:45:23.889Z,16.90
2018-01-12T10:47:51.888Z,14.77
2018-01-12T10:50:24.995Z,15.55
2018-01-12T10:52:51.359Z,15.05
2018-01-12T10:55:17.743Z,19.10
2018-01-12T10:57:45.063Z,18.27
2018-01-12T11:03:26.432Z,20.08
2018-01-12T11:05:56.536Z,16.62
2018-01-12T11:08:26.866Z,17.62
2018-01-12T11:19:25.891Z,16.80
2018-01-12T11:21:55.571Z,19.45
2018-01-12T11:24:23.848Z,17.27
2018-01-12T11:27:20.133Z,18.48
2018-01-12T11:41:51.104Z,16.48
2018-01-12T11:44:18.724Z,17.75
2018-01-12T11:56:06.511Z,20.80
2018-01-12T12:07:47.717Z,15.18
2018-01-12T12:10:14.910Z,16.12
2018-01-12T12:12:49.257Z,17.20
2018-01-12T12:15:25.807Z,18.55
2018-01-12T12:17:58.341Z,16.40
2018-01-12T12:20:25.130Z,17.37
2018-01-12T12:22:52.848Z,17.65
2018-01-12T12:28:03.875Z,14.82
2018-01-12T12:30:33.678Z,16.62
2018-01-12T12:33:02.037Z,15.45
2018-01-12T12:35:33.256Z,14.32
2018-01-12T12:38:05.848Z,16.50
2018-01-12T12:40:34.473Z,15.95
2018-01-12T12:43:01.949Z,15.35
2018-01-12T12:45:34.983Z,15.68
2018-01-12T12:48:04.236Z,15.20
2018-01-12T12:50:33.852Z,16.55
2018-01-12T12:53:00.617Z,16.23
2018-01-12T12:55:28.907Z,16.17
2018-01-12T12:58:01.692Z,16.83
2018-01-12T13:00:28.960Z,16.55
2018-01-12T13:02:59.245Z,18.08
2018-01-12T13:05:25.896Z,19.85
2018-01-12T13:07:52.887Z,16.25
2018-01-12T13:10:19.341Z,18.37
2018-01-12T13:12:45.819Z,20.62
2018-01-12T13:15:12.895Z,22.95
2018-01-12T13:17:40.234Z,19.33
2018-01-12T13:20:07.692Z,18.08
2018-01-12T13:22:34.250Z,16.40
2018-01-12T13:25:00.782Z,16.48
2018-01-12T13:27:27.142Z,17.85
2018-01-12T13:29:58.009Z,18.30
2018-01-12T13:32:24.638Z,17.67
2018-01-12T13:34:51.202Z,19.73
2018-01-12T13:37:19.743Z,18.58
2018-01-12T13:39:46.268Z,20.48
2018-01-12T13:42:13.856Z,19.12
2018-01-12T13:44:40.752Z,17.70
2018-01-12T13:47:08.214Z,16.70
2018-01-12T13:49:34.627Z,16.92
2018-01-12T13:52:02.099Z,19.83
2018-01-12T13:54:47.212Z,18.17
2018-01-12T13:59:50.009Z,17.70
2018-01-12T14:02:18.981Z,15.45
2018-01-12T14:04:47.123Z,15.18
2018-01-12T14:07:20.950Z,18.17
2018-01-12T14:12:19.035Z,21.45
2018-01-12T14:14:45.667Z,21.37
2018-01-12T14:17:12.418Z,19.27
2018-01-12T14:19:39.062Z,39.20
2018-01-12T14:22:07.272Z,26.27
2018-01-12T14:24:35.109Z,21.98
2018-01-12T14:27:01.662Z,24.70
2018-01-12T14:29:28.117Z,23.12
2018-01-12T14:31:54.676Z,32.25
2018-01-12T14:34:22.143Z,42.50
2018-01-12T14:36:49.109Z,32.40
2018-01-12T14:39:17.011Z,21.60
2018-01-12T14:41:43.593Z,20.12
2018-01-12T14:44:10.312Z,18.37
2018-01-12T14:46:39.099Z,20.95
2018-01-12T14:49:05.888Z,23.00
2018-01-12T14:51:32.532Z,20.02
2018-01-12T14:54:00.031Z,20.70
2018-01-12T14:56:27.686Z,21.35
2018-01-12T14:58:54.452Z,21.15
